sensor_id;sensor_type;location;lat;lon;timestamp;temperature;humidity
4699;DHT22;33708;49.466;11.176;2022-08-14T00:00:29;17.90;1.00
4699;DHT22;33708;49.466;11.176;2022-08-14T00:02:54;17.70;1.00
4699;DHT22;33708;49.466;11.176;2022-08-14T00:05:21;17.70;1.00
4699;DHT22;33708;49.466;11.176;2022-08-14T00:07:47;17.70;1.00
4699;DHT22;33708;49.466;11.176;2022-08-14T00:10:21;17.60;1.00
4699;DHT22;33708;49.466;11.176;2022-08-14T00:12:51;17.70;1.00
4699;DHT22;33708;49.466;11.176;2022-08-14T00:15:22;17.70;1.00
4699;DHT22;33708;49.466;11.176;2022-08-14T00:17:49;17.70;1.00
4699;DHT22;33708;49.466;11.176;2022-08-14T00:20:17;17.70;1.00
4699;DHT22;33708;49.466;11.176;2022-08-14T00:22:43;17.60;1.00
4699;DHT22;33708;49.466;11.176;2022-08-14T00:25:09;17.60;1.00
4699;DHT22;33708;49.466;11.176;2022-08-14T00:27:35;17.60;1.00
4699;DHT22;33708;49.466;11.176;2022-08-14T00:30:02;17.70;1.00
4699;DHT22;33708;49.466;11.176;2022-08-14T00:32:29;17.70;1.00
4699;DHT22;33708;49.466;11.176;2022-08-14T00:34:55;17.70;1.00
4699;DHT22;33708;49.466;11.176;2022-08-14T00:37:21;17.70;1.00
4699;DHT22;33708;49.466;11.176;2022-08-14T00:39:47;17.50;1.00
4699;DHT22;33708;49.466;11.176;2022-08-14T00:42:13;17.40;1.00
4699;DHT22;33708;49.466;11.176;2022-08-14T00:44:39;17.30;1.00
4699;DHT22;33708;49.466;11.176;2022-08-14T00:47:04;17.20;1.00
4699;DHT22;33708;49.466;11.176;2022-08-14T00:49:33;17.10;1.00
4699;DHT22;33708;49.466;11.176;2022-08-14T00:51:58;17.10;1.00
4699;DHT22;33708;49.466;11.176;2022-08-14T00:54:25;17.20;1.00
4699;DHT22;33708;49.466;11.176;2022-08-14T00:56:52;17.20;1.00
4699;DHT22;33708;49.466;11.176;2022-08-14T00:59:18;17.20;1.00
4699;DHT22;33708;49.466;11.176;2022-08-14T01:01:44;17.10;1.00
4699;DHT22;33708;49.466;11.176;2022-08-14T01:04:10;17.00;1.00
4699;DHT22;33708;49.466;11.176;2022-08-14T01:06:36;17.00;1.00
4699;DHT22;33708;49.466;11.176;2022-08-14T01:09:03;16.90;1.00
4699;DHT22;33708;49.466;11.176;2022-08-14T01:11:29;16.80;1.00
4699;DHT22;33708;49.466;11.176;2022-08-14T01:13:56;16.80;1.00
4699;DHT22;33708;49.466;11.176;2022-08-14T01:16:25;16.70;1.00
4699;DHT22;33708;49.466;11.176;2022-08-14T01:18:50;16.60;1.00
4699;DHT22;33708;49.466;11.176;2022-08-14T01:21:36;16.60;1.00
4699;DHT22;33708;49.466;11.176;2022-08-14T01:24:04;16.50;1.00
4699;DHT22;33708;49.466;11.176;2022-08-14T01:26:32;16.50;1.00
4699;DHT22;33708;49.466;11.176;2022-08-14T01:29:00;16.50;1.00
4699;DHT22;33708;49.466;11.176;2022-08-14T01:31:29;16.50;1.00
4699;DHT22;33708;49.466;11.176;2022-08-14T01:33:56;16.50;1.00
4699;DHT22;33708;49.466;11.176;2022-08-14T01:36:25;16.40;1.00
4699;DHT22;33708;49.466;11.176;2022-08-14T01:38:53;16.40;1.00
4699;DHT22;33708;49.466;11.176;2022-08-14T01:41:24;16.40;1.00
4699;DHT22;33708;49.466;11.176;2022-08-14T01:43:53;16.30;1.00
4699;DHT22;33708;49.466;11.176;2022-08-14T01:46:23;16.30;1.00
4699;DHT22;33708;49.466;11.176;2022-08-14T01:48:49;16.20;1.00
4699;DHT22;33708;49.466;11.176;2022-08-14T01:51:18;16.10;1.00
4699;DHT22;33708;49.466;11.176;2022-08-14T01:53:49;16.20;1.00
4699;DHT22;33708;49.466;11.176;2022-08-14T01:56:17;16.40;1.00
4699;DHT22;33708;49.466;11.176;2022-08-14T01:58:44;16.40;1.00
4699;DHT22;33708;49.466;11.176;2022-08-14T02:01:17;16.40;1.00
4699;DHT22;33708;49.466;11.176;2022-08-14T02:03:44;16.40;1.00
4699;DHT22;33708;49.466;11.176;2022-08-14T02:06:10;16.20;1.00
4699;DHT22;33708;49.466;11.176;2022-08-14T02:08:38;16.20;1.00
4699;DHT22;33708;49.466;11.176;2022-08-14T02:11:07;16.20;1.00
4699;DHT22;33708;49.466;11.176;2022-08-14T02:14:01;16.20;1.00
4699;DHT22;33708;49.466;11.176;2022-08-14T02:16:31;16.20;1.00
4699;DHT22;33708;49.466;11.176;2022-08-14T02:19:00;16.20;1.00
4699;DHT22;33708;49.466;11.176;2022-08-14T02:21:28;16.20;1.00
4699;DHT22;33708;49.466;11.176;2022-08-14T02:23:59;16.20;1.00
4699;DHT22;33708;49.466;11.176;2022-08-14T02:26:28;16.20;1.00
4699;DHT22;33708;49.466;11.176;2022-08-14T02:28:57;16.20;1.00
4699;DHT22;33708;49.466;11.176;2022-08-14T02:31:27;16.10;1.00
4699;DHT22;33708;49.466;11.176;2022-08-14T02:33:54;16.10;1.00
4699;DHT22;33708;49.466;11.176;2022-08-14T02:36:21;16.10;1.00
4699;DHT22;33708;49.466;11.176;2022-08-14T02:38:47;16.10;1.00
4699;DHT22;33708;49.466;11.176;2022-08-14T02:41:12;16.00;1.00
4699;DHT22;33708;49.466;11.176;2022-08-14T02:43:39;16.00;1.00
4699;DHT22;33708;49.466;11.176;2022-08-14T02:46:07;16.10;1.00
4699;DHT22;33708;49.466;11.176;2022-08-14T02:48:39;16.20;1.00
4699;DHT22;33708;49.466;11.176;2022-08-14T02:51:10;16.20;1.00
4699;DHT22;33708;49.466;11.176;2022-08-14T02:53:40;16.10;1.00
4699;DHT22;33708;49.466;11.176;2022-08-14T02:56:07;16.10;1.00
4699;DHT22;33708;49.466;11.176;2022-08-14T02:58:37;16.00;1.00
4699;DHT22;33708;49.466;11.176;2022-08-14T03:01:04;15.90;1.00
4699;DHT22;33708;49.466;11.176;2022-08-14T03:03:30;15.70;1.00
4699;DHT22;33708;49.466;11.176;2022-08-14T03:05:56;15.80;1.00
4699;DHT22;33708;49.466;11.176;2022-08-14T03:08:22;15.80;1.00
4699;DHT22;33708;49.466;11.176;2022-08-14T03:10:48;15.90;1.00
4699;DHT22;33708;49.466;11.176;2022-08-14T03:13:14;16.00;1.00
4699;DHT22;33708;49.466;11.176;2022-08-14T03:15:40;15.90;1.00
4699;DHT22;33708;49.466;11.176;2022-08-14T03:18:15;15.90;1.00
4699;DHT22;33708;49.466;11.176;2022-08-14T03:20:41;16.00;1.00
4699;DHT22;33708;49.466;11.176;2022-08-14T03:23:06;15.90;1.00
4699;DHT22;33708;49.466;11.176;2022-08-14T03:25:32;15.80;1.00
4699;DHT22;33708;49.466;11.176;2022-08-14T03:28:02;15.70;1.00
4699;DHT22;33708;49.466;11.176;2022-08-14T03:30:29;15.70;1.00
4699;DHT22;33708;49.466;11.176;2022-08-14T03:32:56;15.80;1.00
4699;DHT22;33708;49.466;11.176;2022-08-14T03:35:22;15.70;15.40
4699;DHT22;33708;49.466;11.176;2022-08-14T03:37:48;15.80;33.70
4699;DHT22;33708;49.466;11.176;2022-08-14T03:40:20;15.80;48.70
4699;DHT22;33708;49.466;11.176;2022-08-14T03:42:47;16.00;78.40
4699;DHT22;33708;49.466;11.176;2022-08-14T03:45:13;16.00;91.60
4699;DHT22;33708;49.466;11.176;2022-08-14T03:47:41;16.00;83.60
4699;DHT22;33708;49.466;11.176;2022-08-14T03:50:08;16.10;94.50
4699;DHT22;33708;49.466;11.176;2022-08-14T03:52:39;16.20;99.50
4699;DHT22;33708;49.466;11.176;2022-08-14T03:55:09;16.40;99.90
4699;DHT22;33708;49.466;11.176;2022-08-14T03:57:39;16.50;99.90
4699;DHT22;33708;49.466;11.176;2022-08-14T04:00:08;16.70;99.90
4699;DHT22;33708;49.466;11.176;2022-08-14T04:02:36;16.80;99.90
4699;DHT22;33708;49.466;11.176;2022-08-14T04:05:08;16.90;99.90
4699;DHT22;33708;49.466;11.176;2022-08-14T04:07:34;17.00;99.90
4699;DHT22;33708;49.466;11.176;2022-08-14T04:10:01;17.10;99.90
4699;DHT22;33708;49.466;11.176;2022-08-14T04:12:27;17.20;99.90
4699;DHT22;33708;49.466;11.176;2022-08-14T04:14:52;17.30;99.90
4699;DHT22;33708;49.466;11.176;2022-08-14T04:17:18;17.40;99.90
4699;DHT22;33708;49.466;11.176;2022-08-14T04:19:45;17.40;99.90
4699;DHT22;33708;49.466;11.176;2022-08-14T04:22:12;17.50;99.90
4699;DHT22;33708;49.466;11.176;2022-08-14T04:24:39;17.60;99.90
4699;DHT22;33708;49.466;11.176;2022-08-14T04:27:11;18.00;99.90
4699;DHT22;33708;49.466;11.176;2022-08-14T04:29:42;18.20;96.10
4699;DHT22;33708;49.466;11.176;2022-08-14T04:32:09;18.50;76.60
4699;DHT22;33708;49.466;11.176;2022-08-14T04:34:35;18.40;61.20
4699;DHT22;33708;49.466;11.176;2022-08-14T04:37:05;19.00;55.90
4699;DHT22;33708;49.466;11.176;2022-08-14T04:39:49;20.30;33.90
4699;DHT22;33708;49.466;11.176;2022-08-14T04:42:33;21.10;13.50
4699;DHT22;33708;49.466;11.176;2022-08-14T04:45:22;21.60;1.20
4699;DHT22;33708;49.466;11.176;2022-08-14T04:47:49;22.50;1.00
4699;DHT22;33708;49.466;11.176;2022-08-14T04:50:34;23.20;1.00
4699;DHT22;33708;49.466;11.176;2022-08-14T04:53:00;23.50;1.00
4699;DHT22;33708;49.466;11.176;2022-08-14T04:55:26;23.90;1.00
4699;DHT22;33708;49.466;11.176;2022-08-14T04:57:52;23.50;1.00
4699;DHT22;33708;49.466;11.176;2022-08-14T05:00:18;23.60;1.00
4699;DHT22;33708;49.466;11.176;2022-08-14T05:02:43;23.30;1.00
4699;DHT22;33708;49.466;11.176;2022-08-14T05:05:09;24.20;1.00
4699;DHT22;33708;49.466;11.176;2022-08-14T05:07:35;24.20;1.00
4699;DHT22;33708;49.466;11.176;2022-08-14T05:10:02;24.90;1.00
4699;DHT22;33708;49.466;11.176;2022-08-14T05:12:28;25.40;1.00
4699;DHT22;33708;49.466;11.176;2022-08-14T05:14:54;26.30;1.00
4699;DHT22;33708;49.466;11.176;2022-08-14T05:17:21;26.60;1.00
4699;DHT22;33708;49.466;11.176;2022-08-14T05:19:48;27.40;1.00
4699;DHT22;33708;49.466;11.176;2022-08-14T05:22:14;26.20;1.00
4699;DHT22;33708;49.466;11.176;2022-08-14T05:24:40;26.30;1.00
4699;DHT22;33708;49.466;11.176;2022-08-14T05:27:06;26.60;1.00
4699;DHT22;33708;49.466;11.176;2022-08-14T05:29:33;26.60;1.00
4699;DHT22;33708;49.466;11.176;2022-08-14T05:32:00;27.50;1.00
4699;DHT22;33708;49.466;11.176;2022-08-14T05:34:31;26.90;1.00
4699;DHT22;33708;49.466;11.176;2022-08-14T05:36:59;27.90;1.00
4699;DHT22;33708;49.466;11.176;2022-08-14T05:39:26;28.10;1.00
4699;DHT22;33708;49.466;11.176;2022-08-14T05:41:52;29.20;1.00
4699;DHT22;33708;49.466;11.176;2022-08-14T05:44:18;29.40;1.00
4699;DHT22;33708;49.466;11.176;2022-08-14T05:46:43;29.20;1.00
4699;DHT22;33708;49.466;11.176;2022-08-14T05:49:09;30.50;1.00
4699;DHT22;33708;49.466;11.176;2022-08-14T05:51:35;30.70;1.00
4699;DHT22;33708;49.466;11.176;2022-08-14T05:54:01;29.40;1.00
4699;DHT22;33708;49.466;11.176;2022-08-14T05:56:27;28.90;1.00
4699;DHT22;33708;49.466;11.176;2022-08-14T05:58:53;30.90;1.00
4699;DHT22;33708;49.466;11.176;2022-08-14T06:01:19;31.40;1.00
4699;DHT22;33708;49.466;11.176;2022-08-14T06:03:44;30.30;1.00
4699;DHT22;33708;49.466;11.176;2022-08-14T06:06:10;29.90;1.00
4699;DHT22;33708;49.466;11.176;2022-08-14T06:08:36;29.90;1.00
4699;DHT22;33708;49.466;11.176;2022-08-14T06:11:04;31.40;1.00
4699;DHT22;33708;49.466;11.176;2022-08-14T06:13:31;31.60;1.00
4699;DHT22;33708;49.466;11.176;2022-08-14T06:15:57;32.00;1.00
4699;DHT22;33708;49.466;11.176;2022-08-14T06:18:23;32.00;1.00
4699;DHT22;33708;49.466;11.176;2022-08-14T06:20:49;30.50;1.00
4699;DHT22;33708;49.466;11.176;2022-08-14T06:23:15;32.30;1.00
4699;DHT22;33708;49.466;11.176;2022-08-14T06:25:40;32.20;1.00
4699;DHT22;33708;49.466;11.176;2022-08-14T06:28:06;33.30;1.00
4699;DHT22;33708;49.466;11.176;2022-08-14T06:30:34;33.40;1.00
4699;DHT22;33708;49.466;11.176;2022-08-14T06:33:00;34.10;1.00
4699;DHT22;33708;49.466;11.176;2022-08-14T06:35:26;33.90;1.00
4699;DHT22;33708;49.466;11.176;2022-08-14T06:37:59;32.70;1.00
4699;DHT22;33708;49.466;11.176;2022-08-14T06:40:30;34.50;1.00
4699;DHT22;33708;49.466;11.176;2022-08-14T06:42:59;35.10;1.00
4699;DHT22;33708;49.466;11.176;2022-08-14T06:45:25;33.20;1.00
4699;DHT22;33708;49.466;11.176;2022-08-14T06:47:51;34.80;1.00
4699;DHT22;33708;49.466;11.176;2022-08-14T06:50:19;34.10;1.00
4699;DHT22;33708;49.466;11.176;2022-08-14T06:52:46;35.30;1.00
4699;DHT22;33708;49.466;11.176;2022-08-14T06:55:13;34.30;1.00
4699;DHT22;33708;49.466;11.176;2022-08-14T06:57:44;35.50;1.00
4699;DHT22;33708;49.466;11.176;2022-08-14T07:00:19;35.20;1.00
4699;DHT22;33708;49.466;11.176;2022-08-14T07:02:46;35.90;1.00
4699;DHT22;33708;49.466;11.176;2022-08-14T07:05:31;35.70;1.00
4699;DHT22;33708;49.466;11.176;2022-08-14T07:08:15;35.80;1.00
4699;DHT22;33708;49.466;11.176;2022-08-14T07:10:44;36.30;1.00
4699;DHT22;33708;49.466;11.176;2022-08-14T07:13:10;35.40;1.00
4699;DHT22;33708;49.466;11.176;2022-08-14T07:15:36;37.30;1.00
4699;DHT22;33708;49.466;11.176;2022-08-14T07:18:03;37.50;1.00
4699;DHT22;33708;49.466;11.176;2022-08-14T07:20:30;37.90;1.00
4699;DHT22;33708;49.466;11.176;2022-08-14T07:22:55;39.40;1.00
4699;DHT22;33708;49.466;11.176;2022-08-14T07:25:26;36.30;1.00
4699;DHT22;33708;49.466;11.176;2022-08-14T07:27:53;36.00;1.00
4699;DHT22;33708;49.466;11.176;2022-08-14T07:30:19;38.10;1.00
4699;DHT22;33708;49.466;11.176;2022-08-14T07:32:44;37.10;1.00
4699;DHT22;33708;49.466;11.176;2022-08-14T07:35:10;38.70;1.00
4699;DHT22;33708;49.466;11.176;2022-08-14T07:37:36;39.10;1.00
4699;DHT22;33708;49.466;11.176;2022-08-14T07:40:03;39.50;1.00
4699;DHT22;33708;49.466;11.176;2022-08-14T07:42:29;37.40;1.00
4699;DHT22;33708;49.466;11.176;2022-08-14T07:44:57;38.30;1.00
4699;DHT22;33708;49.466;11.176;2022-08-14T07:47:23;38.10;1.00
4699;DHT22;33708;49.466;11.176;2022-08-14T07:50:00;37.10;1.00
4699;DHT22;33708;49.466;11.176;2022-08-14T07:52:27;39.00;1.00
4699;DHT22;33708;49.466;11.176;2022-08-14T07:54:54;39.30;1.00
4699;DHT22;33708;49.466;11.176;2022-08-14T07:57:20;37.50;1.00
4699;DHT22;33708;49.466;11.176;2022-08-14T07:59:46;38.60;1.00
4699;DHT22;33708;49.466;11.176;2022-08-14T08:02:14;39.20;1.00
4699;DHT22;33708;49.466;11.176;2022-08-14T08:04:43;40.80;1.00
4699;DHT22;33708;49.466;11.176;2022-08-14T08:07:10;40.60;1.00
4699;DHT22;33708;49.466;11.176;2022-08-14T08:09:36;37.50;1.00
4699;DHT22;33708;49.466;11.176;2022-08-14T08:12:05;38.00;1.00
4699;DHT22;33708;49.466;11.176;2022-08-14T08:14:33;37.60;1.00
4699;DHT22;33708;49.466;11.176;2022-08-14T08:16:59;36.90;1.00
4699;DHT22;33708;49.466;11.176;2022-08-14T08:19:25;36.80;1.00
4699;DHT22;33708;49.466;11.176;2022-08-14T08:21:51;36.70;1.00
4699;DHT22;33708;49.466;11.176;2022-08-14T08:24:19;35.70;1.00
4699;DHT22;33708;49.466;11.176;2022-08-14T08:26:44;37.60;1.00
4699;DHT22;33708;49.466;11.176;2022-08-14T08:29:18;36.50;1.00
4699;DHT22;33708;49.466;11.176;2022-08-14T08:31:47;34.50;1.00
4699;DHT22;33708;49.466;11.176;2022-08-14T08:34:17;35.80;1.00
4699;DHT22;33708;49.466;11.176;2022-08-14T08:36:43;35.10;1.00
4699;DHT22;33708;49.466;11.176;2022-08-14T08:39:10;35.70;1.00
4699;DHT22;33708;49.466;11.176;2022-08-14T08:41:47;34.50;1.00
4699;DHT22;33708;49.466;11.176;2022-08-14T08:44:13;34.50;1.00
4699;DHT22;33708;49.466;11.176;2022-08-14T08:46:39;33.90;1.00
4699;DHT22;33708;49.466;11.176;2022-08-14T08:49:07;33.30;1.00
4699;DHT22;33708;49.466;11.176;2022-08-14T08:51:36;34.50;1.00
4699;DHT22;33708;49.466;11.176;2022-08-14T08:54:09;35.50;1.00
4699;DHT22;33708;49.466;11.176;2022-08-14T08:56:49;34.40;1.00
4699;DHT22;33708;49.466;11.176;2022-08-14T08:59:27;36.20;1.00
4699;DHT22;33708;49.466;11.176;2022-08-14T09:01:57;36.70;1.00
4699;DHT22;33708;49.466;11.176;2022-08-14T09:04:24;36.00;1.00
4699;DHT22;33708;49.466;11.176;2022-08-14T09:06:51;36.20;1.00
4699;DHT22;33708;49.466;11.176;2022-08-14T09:09:29;36.00;1.00
4699;DHT22;33708;49.466;11.176;2022-08-14T09:11:57;34.80;1.00
4699;DHT22;33708;49.466;11.176;2022-08-14T09:14:29;35.70;1.00
4699;DHT22;33708;49.466;11.176;2022-08-14T09:16:58;35.10;1.00
4699;DHT22;33708;49.466;11.176;2022-08-14T09:19:25;35.40;1.00
4699;DHT22;33708;49.466;11.176;2022-08-14T09:21:51;35.20;1.00
4699;DHT22;33708;49.466;11.176;2022-08-14T09:24:19;36.00;1.00
4699;DHT22;33708;49.466;11.176;2022-08-14T09:26:45;36.00;1.00
4699;DHT22;33708;49.466;11.176;2022-08-14T09:29:12;36.60;1.00
4699;DHT22;33708;49.466;11.176;2022-08-14T09:31:42;36.00;1.00
4699;DHT22;33708;49.466;11.176;2022-08-14T09:34:28;36.60;1.00
4699;DHT22;33708;49.466;11.176;2022-08-14T09:37:05;36.20;1.00
4699;DHT22;33708;49.466;11.176;2022-08-14T09:47:48;35.10;1.00
4699;DHT22;33708;49.466;11.176;2022-08-14T09:50:24;34.20;1.00
4699;DHT22;33708;49.466;11.176;2022-08-14T09:53:03;32.50;1.00
4699;DHT22;33708;49.466;11.176;2022-08-14T09:55:31;31.40;1.00
4699;DHT22;33708;49.466;11.176;2022-08-14T09:58:15;31.30;1.00
4699;DHT22;33708;49.466;11.176;2022-08-14T10:00:49;30.80;1.00
4699;DHT22;33708;49.466;11.176;2022-08-14T10:03:28;30.10;1.00
4699;DHT22;33708;49.466;11.176;2022-08-14T10:06:08;29.80;1.00
4699;DHT22;33708;49.466;11.176;2022-08-14T10:08:48;29.40;1.00
4699;DHT22;33708;49.466;11.176;2022-08-14T10:11:27;29.50;1.00
4699;DHT22;33708;49.466;11.176;2022-08-14T10:14:09;30.20;1.00
4699;DHT22;33708;49.466;11.176;2022-08-14T10:16:42;30.30;1.00
4699;DHT22;33708;49.466;11.176;2022-08-14T10:19:10;30.10;1.00
4699;DHT22;33708;49.466;11.176;2022-08-14T10:21:38;30.40;1.00
4699;DHT22;33708;49.466;11.176;2022-08-14T10:24:08;29.40;1.00
4699;DHT22;33708;49.466;11.176;2022-08-14T10:26:34;29.10;1.00
4699;DHT22;33708;49.466;11.176;2022-08-14T10:29:10;29.00;1.00
4699;DHT22;33708;49.466;11.176;2022-08-14T10:31:37;29.50;1.00
4699;DHT22;33708;49.466;11.176;2022-08-14T10:34:11;29.20;1.00
4699;DHT22;33708;49.466;11.176;2022-08-14T10:36:44;29.20;1.00
4699;DHT22;33708;49.466;11.176;2022-08-14T10:39:17;29.20;1.00
4699;DHT22;33708;49.466;11.176;2022-08-14T10:41:44;28.40;1.00
4699;DHT22;33708;49.466;11.176;2022-08-14T10:44:15;28.80;1.00
4699;DHT22;33708;49.466;11.176;2022-08-14T10:46:50;29.30;1.00
4699;DHT22;33708;49.466;11.176;2022-08-14T10:49:24;29.90;1.00
4699;DHT22;33708;49.466;11.176;2022-08-14T10:51:59;30.00;1.00
4699;DHT22;33708;49.466;11.176;2022-08-14T10:54:42;29.70;1.00
4699;DHT22;33708;49.466;11.176;2022-08-14T10:59:56;29.80;1.00
4699;DHT22;33708;49.466;11.176;2022-08-14T11:05:08;30.50;1.00
4699;DHT22;33708;49.466;11.176;2022-08-14T11:07:53;30.60;1.00
4699;DHT22;33708;49.466;11.176;2022-08-14T11:10:21;30.50;1.00
4699;DHT22;33708;49.466;11.176;2022-08-14T11:12:53;30.50;1.00
4699;DHT22;33708;49.466;11.176;2022-08-14T11:15:22;30.90;1.00
4699;DHT22;33708;49.466;11.176;2022-08-14T11:17:48;31.00;1.00
4699;DHT22;33708;49.466;11.176;2022-08-14T11:20:17;30.50;1.00
4699;DHT22;33708;49.466;11.176;2022-08-14T11:22:44;30.70;1.00
4699;DHT22;33708;49.466;11.176;2022-08-14T11:25:12;30.30;1.00
4699;DHT22;33708;49.466;11.176;2022-08-14T11:27:43;30.00;1.00
4699;DHT22;33708;49.466;11.176;2022-08-14T11:30:15;30.30;1.00
4699;DHT22;33708;49.466;11.176;2022-08-14T11:32:45;30.50;1.00
4699;DHT22;33708;49.466;11.176;2022-08-14T11:35:23;30.50;1.00
4699;DHT22;33708;49.466;11.176;2022-08-14T11:38:01;31.50;1.00
4699;DHT22;33708;49.466;11.176;2022-08-14T11:40:36;31.60;1.00
4699;DHT22;33708;49.466;11.176;2022-08-14T11:43:07;32.40;1.00
4699;DHT22;33708;49.466;11.176;2022-08-14T11:45:36;31.50;1.00
4699;DHT22;33708;49.466;11.176;2022-08-14T11:48:21;31.50;1.00
4699;DHT22;33708;49.466;11.176;2022-08-14T11:50:49;31.50;1.00
4699;DHT22;33708;49.466;11.176;2022-08-14T11:55:44;32.60;1.00
4699;DHT22;33708;49.466;11.176;2022-08-14T11:58:11;32.50;1.00
4699;DHT22;33708;49.466;11.176;2022-08-14T12:00:51;31.30;1.00
4699;DHT22;33708;49.466;11.176;2022-08-14T12:03:18;31.30;1.00
4699;DHT22;33708;49.466;11.176;2022-08-14T12:05:44;31.50;1.00
4699;DHT22;33708;49.466;11.176;2022-08-14T12:08:11;31.60;1.00
4699;DHT22;33708;49.466;11.176;2022-08-14T12:10:39;31.30;1.00
4699;DHT22;33708;49.466;11.176;2022-08-14T12:13:13;30.10;1.00
4699;DHT22;33708;49.466;11.176;2022-08-14T12:15:39;30.30;1.00
4699;DHT22;33708;49.466;11.176;2022-08-14T12:18:06;30.20;1.00
4699;DHT22;33708;49.466;11.176;2022-08-14T12:20:35;30.40;1.00
4699;DHT22;33708;49.466;11.176;2022-08-14T12:23:05;31.80;1.00
4699;DHT22;33708;49.466;11.176;2022-08-14T12:25:33;32.30;1.00
4699;DHT22;33708;49.466;11.176;2022-08-14T12:28:02;30.50;1.00
4699;DHT22;33708;49.466;11.176;2022-08-14T12:30:40;31.60;1.00
4699;DHT22;33708;49.466;11.176;2022-08-14T12:33:19;32.10;1.00
4699;DHT22;33708;49.466;11.176;2022-08-14T12:35:52;30.80;1.00
4699;DHT22;33708;49.466;11.176;2022-08-14T12:38:18;30.50;1.00
4699;DHT22;33708;49.466;11.176;2022-08-14T12:40:55;30.10;1.00
4699;DHT22;33708;49.466;11.176;2022-08-14T12:43:20;30.20;1.00
4699;DHT22;33708;49.466;11.176;2022-08-14T12:45:51;30.40;1.00
4699;DHT22;33708;49.466;11.176;2022-08-14T12:48:20;30.50;1.00
4699;DHT22;33708;49.466;11.176;2022-08-14T12:50:47;30.20;1.00
4699;DHT22;33708;49.466;11.176;2022-08-14T12:53:17;30.90;1.00
4699;DHT22;33708;49.466;11.176;2022-08-14T12:55:44;31.00;1.00
4699;DHT22;33708;49.466;11.176;2022-08-14T12:58:10;31.50;1.00
4699;DHT22;33708;49.466;11.176;2022-08-14T13:00:47;31.10;1.00
4699;DHT22;33708;49.466;11.176;2022-08-14T13:03:25;31.00;1.00
4699;DHT22;33708;49.466;11.176;2022-08-14T13:05:52;31.10;1.00
4699;DHT22;33708;49.466;11.176;2022-08-14T13:08:18;31.00;1.00
4699;DHT22;33708;49.466;11.176;2022-08-14T13:10:46;30.80;1.00
4699;DHT22;33708;49.466;11.176;2022-08-14T13:13:17;31.10;1.00
4699;DHT22;33708;49.466;11.176;2022-08-14T13:15:48;31.40;1.00
4699;DHT22;33708;49.466;11.176;2022-08-14T13:18:17;31.50;1.00
4699;DHT22;33708;49.466;11.176;2022-08-14T13:20:43;32.30;1.00
4699;DHT22;33708;49.466;11.176;2022-08-14T13:23:12;31.40;1.00
4699;DHT22;33708;49.466;11.176;2022-08-14T13:25:41;32.00;1.00
4699;DHT22;33708;49.466;11.176;2022-08-14T13:28:08;31.80;1.00
4699;DHT22;33708;49.466;11.176;2022-08-14T13:30:35;32.00;1.00
4699;DHT22;33708;49.466;11.176;2022-08-14T13:33:02;31.50;1.00
4699;DHT22;33708;49.466;11.176;2022-08-14T13:35:31;30.80;1.00
4699;DHT22;33708;49.466;11.176;2022-08-14T13:37:56;30.60;1.00
4699;DHT22;33708;49.466;11.176;2022-08-14T13:40:23;30.40;1.00
4699;DHT22;33708;49.466;11.176;2022-08-14T13:42:49;30.70;1.00
4699;DHT22;33708;49.466;11.176;2022-08-14T13:45:17;31.90;1.00
4699;DHT22;33708;49.466;11.176;2022-08-14T13:47:44;31.70;1.00
4699;DHT22;33708;49.466;11.176;2022-08-14T13:50:12;31.50;1.00
4699;DHT22;33708;49.466;11.176;2022-08-14T13:52:48;31.70;1.00
4699;DHT22;33708;49.466;11.176;2022-08-14T13:55:19;32.10;1.00
4699;DHT22;33708;49.466;11.176;2022-08-14T13:57:46;32.20;1.00
4699;DHT22;33708;49.466;11.176;2022-08-14T14:00:13;32.00;1.00
4699;DHT22;33708;49.466;11.176;2022-08-14T14:02:43;31.70;1.00
4699;DHT22;33708;49.466;11.176;2022-08-14T14:05:12;31.10;1.00
4699;DHT22;33708;49.466;11.176;2022-08-14T14:07:47;30.70;1.00
4699;DHT22;33708;49.466;11.176;2022-08-14T14:10:14;30.90;1.00
4699;DHT22;33708;49.466;11.176;2022-08-14T14:12:42;31.20;1.00
4699;DHT22;33708;49.466;11.176;2022-08-14T14:15:19;31.40;1.00
4699;DHT22;33708;49.466;11.176;2022-08-14T14:17:46;31.20;1.00
4699;DHT22;33708;49.466;11.176;2022-08-14T14:20:16;30.90;1.00
4699;DHT22;33708;49.466;11.176;2022-08-14T14:22:47;30.60;1.00
4699;DHT22;33708;49.466;11.176;2022-08-14T14:25:15;30.80;1.00
4699;DHT22;33708;49.466;11.176;2022-08-14T14:27:43;31.10;1.00
4699;DHT22;33708;49.466;11.176;2022-08-14T14:30:15;31.40;1.00
4699;DHT22;33708;49.466;11.176;2022-08-14T14:32:43;31.50;1.00
4699;DHT22;33708;49.466;11.176;2022-08-14T14:35:17;31.60;1.00
4699;DHT22;33708;49.466;11.176;2022-08-14T14:37:47;31.30;1.00
4699;DHT22;33708;49.466;11.176;2022-08-14T14:40:15;32.00;1.00
4699;DHT22;33708;49.466;11.176;2022-08-14T14:42:49;31.70;1.00
4699;DHT22;33708;49.466;11.176;2022-08-14T14:45:18;31.80;1.00
4699;DHT22;33708;49.466;11.176;2022-08-14T14:47:54;32.10;1.00
4699;DHT22;33708;49.466;11.176;2022-08-14T14:50:21;32.10;1.00
4699;DHT22;33708;49.466;11.176;2022-08-14T14:52:47;31.30;1.00
4699;DHT22;33708;49.466;11.176;2022-08-14T14:55:15;31.70;1.00
4699;DHT22;33708;49.466;11.176;2022-08-14T14:57:42;31.40;1.00
4699;DHT22;33708;49.466;11.176;2022-08-14T15:00:09;31.10;1.00
4699;DHT22;33708;49.466;11.176;2022-08-14T15:02:39;30.40;1.00
4699;DHT22;33708;49.466;11.176;2022-08-14T15:05:06;30.30;1.00
4699;DHT22;33708;49.466;11.176;2022-08-14T15:07:34;30.20;1.00
4699;DHT22;33708;49.466;11.176;2022-08-14T15:10:00;30.70;1.00
4699;DHT22;33708;49.466;11.176;2022-08-14T15:12:26;31.00;1.00
4699;DHT22;33708;49.466;11.176;2022-08-14T15:14:51;31.00;1.00
4699;DHT22;33708;49.466;11.176;2022-08-14T15:17:17;31.50;1.00
4699;DHT22;33708;49.466;11.176;2022-08-14T15:19:44;31.80;1.00
4699;DHT22;33708;49.466;11.176;2022-08-14T15:22:09;31.30;1.00
4699;DHT22;33708;49.466;11.176;2022-08-14T15:24:36;31.90;1.00
4699;DHT22;33708;49.466;11.176;2022-08-14T15:27:02;31.80;1.00
4699;DHT22;33708;49.466;11.176;2022-08-14T15:29:31;32.30;1.00
4699;DHT22;33708;49.466;11.176;2022-08-14T15:32:12;32.30;1.00
4699;DHT22;33708;49.466;11.176;2022-08-14T15:34:38;31.60;1.00
4699;DHT22;33708;49.466;11.176;2022-08-14T15:37:05;31.60;1.00
4699;DHT22;33708;49.466;11.176;2022-08-14T15:39:32;31.50;1.00
4699;DHT22;33708;49.466;11.176;2022-08-14T15:41:58;31.40;1.00
4699;DHT22;33708;49.466;11.176;2022-08-14T15:44:25;32.00;1.00
4699;DHT22;33708;49.466;11.176;2022-08-14T15:46:51;31.60;1.00
4699;DHT22;33708;49.466;11.176;2022-08-14T15:49:17;31.90;1.00
4699;DHT22;33708;49.466;11.176;2022-08-14T15:51:43;31.70;1.00
4699;DHT22;33708;49.466;11.176;2022-08-14T15:54:09;31.70;1.00
4699;DHT22;33708;49.466;11.176;2022-08-14T15:56:35;31.60;1.00
4699;DHT22;33708;49.466;11.176;2022-08-14T15:59:02;31.30;1.00
4699;DHT22;33708;49.466;11.176;2022-08-14T16:01:27;31.20;1.00
4699;DHT22;33708;49.466;11.176;2022-08-14T16:03:55;30.90;1.00
4699;DHT22;33708;49.466;11.176;2022-08-14T16:06:27;31.40;1.00
4699;DHT22;33708;49.466;11.176;2022-08-14T16:08:55;31.20;1.00
4699;DHT22;33708;49.466;11.176;2022-08-14T16:11:22;31.20;1.00